Mary Alice — WCX9570 — position and weather

sailwx.info

Track history (hours):
 
Tides and Currents Weather Stations Pressure Air Temp Water Temp Dewpoint Dewpoint Depression Visibility Wind Speed Wind Dir Waves Ship Positions

Mary Alice

Owner: Donjon Marine Co., Inc., HILLSIDE, NJ. More information available from US FCC via Universal Licensing System and Coast Guard Vessel Documentation Center.

Last reported at 2017-Dec-15 08:00 UTC. Time now 2017-Dec-15 08:06 UTC.
Position N 40°39' W 074°06'.

Length 21 m; draft 4.8 m.

Type: Towing. MMSI: 366744020.

Date/timePositionNaut miles runAvg speedWind from/ knotsBaromVisibWave heightAir tempDewpointWater temp
2017-Dec-15 08:00N 40°39' W 074°06'1 1.8
2017-Dec-15 07:30N 40°39' W 074°07'0 0.2
2017-Dec-15 07:00N 40°39' W 074°07'0 0.1
2017-Dec-15 06:30N 40°39' W 074°07'2 3.1
2017-Dec-15 06:00N 40°40' W 074°08'1 2.7
2017-Dec-15 05:30N 40°41' W 074°08'0 0.0
2017-Dec-15 05:00N 40°41' W 074°08'0 0.0
2017-Dec-15 04:30N 40°41' W 074°08'0 0.0
2017-Dec-15 04:00N 40°41' W 074°08'0 0.0
2017-Dec-15 02:30N 40°41' W 074°08'3 1.8
2017-Dec-15 01:00N 40°41' W 074°05'1 2.0
2017-Dec-15 00:30N 40°40' W 074°04'51 6.7
2017-Dec-14 16:59N 39°50' W 074°03'4 8.9
2017-Dec-14 16:29N 39°45' W 074°04'4 8.5
2017-Dec-14 15:58N 39°41' W 074°06'63 6.9
2017-Dec-14 06:44N 39°00' W 075°09'2 8.8
2017-Dec-14 06:30N 39°02' W 075°10'8 9.6
2017-Dec-14 05:42N 39°09' W 075°14'310.8
2017-Dec-14 05:27N 39°11' W 075°16'511.2
2017-Dec-14 05:00N 39°15' W 075°20'611.5
2017-Dec-14 04:30N 39°20' W 075°25'611.1
2017-Dec-14 04:00N 39°24' W 075°29'510.5
2017-Dec-14 03:30N 39°28' W 075°34'5 9.8
2017-Dec-14 03:00N 39°33' W 075°33'5 9.0
2017-Dec-14 02:30N 39°37' W 075°35'4 8.0
2017-Dec-14 02:00N 39°40' W 075°32'3 6.0
2017-Dec-14 01:30N 39°43' W 075°31'0 0.5
2017-Dec-14 01:00N 39°43' W 075°32'1 1.8
2017-Dec-14 00:30N 39°43' W 075°30'3 6.2
2017-Dec-14 00:00N 39°40' W 075°32'4 8.2
2017-Dec-13 23:30N 39°36' W 075°34'4 8.6
2017-Dec-13 23:00N 39°32' W 075°33'4 8.5
2017-Dec-13 22:30N 39°28' W 075°34'4 8.6
2017-Dec-13 22:00N 39°25' W 075°30'4 8.3
2017-Dec-13 21:30N 39°22' W 075°27'4 7.8
2017-Dec-13 21:00N 39°19' W 075°24'4 7.6
2017-Dec-13 20:30N 39°16' W 075°20'4 7.2
2017-Dec-13 20:00N 39°13' W 075°17'4 6.9
2017-Dec-13 19:22N 39°09' W 075°14'5 5.8
2017-Dec-13 18:30N 39°05' W 075°11'55 1.6
2017-Dec-12 08:02N 39°29' W 074°08'2 6.4
2017-Dec-12 07:47N 39°31' W 074°07'2 6.6
2017-Dec-12 07:29N 39°33' W 074°06'3 6.9
2017-Dec-12 07:00N 39°36' W 074°05'3 6.7
2017-Dec-12 06:29N 39°39' W 074°03'4 7.3
2017-Dec-12 05:59N 39°42' W 074°01'43 7.6
2017-Dec-12 00:21N 40°25' W 073°54'3 8.0
2017-Dec-11 23:59N 40°28' W 073°54'4 7.6
2017-Dec-11 23:30N 40°30' W 073°58'4 7.9
2017-Dec-11 22:59N 40°33' W 074°02'4 7.7
2017-Dec-11 22:29N 40°37' W 074°03'1 1.9
2017-Dec-11 22:00N 40°38' W 074°03'3 5.5
2017-Dec-11 21:30N 40°40' W 074°05'0 0.6
2017-Dec-11 21:00N 40°40' W 074°05'0 0.0
2017-Dec-11 20:30N 40°40' W 074°05'0 0.0
2017-Dec-11 20:00N 40°40' W 074°05'1 1.5
2017-Dec-11 19:30N 40°40' W 074°04'1 2.3
2017-Dec-11 19:00N 40°41' W 074°05'0 0.0
2017-Dec-11 18:30N 40°41' W 074°05'0 0.0
2017-Dec-11 18:00N 40°41' W 074°05'0 0.0
2017-Dec-11 17:30N 40°41' W 074°05'0 0.0
2017-Dec-11 17:00N 40°41' W 074°05'0 0.1
2017-Dec-11 16:30N 40°41' W 074°05'0 0.0
2017-Dec-11 16:00N 40°41' W 074°05'2 3.1
2017-Dec-11 15:31N 40°40' W 074°03'4 8.4
2017-Dec-11 15:00N 40°44' W 074°01'4 8.7
2017-Dec-11 14:30N 40°48' W 073°59'4 8.6
2017-Dec-11 14:00N 40°52' W 073°56'4 7.7
2017-Dec-11 13:29N 40°56' W 073°55'1 0.0
2017-Dec-10 04:22N 40°57' W 073°54'2 6.4
2017-Dec-10 04:00N 40°55' W 073°55'3 5.9
2017-Dec-10 03:30N 40°52' W 073°56'3 5.7
2017-Dec-10 03:00N 40°49' W 073°58'3 5.1
2017-Dec-10 02:30N 40°47' W 073°60'2 4.8
2017-Dec-10 02:00N 40°45' W 074°01'2 4.8
2017-Dec-10 01:30N 40°43' W 074°02'2 4.8
2017-Dec-10 01:00N 40°40' W 074°03'3 5.5
2017-Dec-10 00:30N 40°39' W 074°06'2 4.7
2017-Dec-10 00:00N 40°39' W 074°09'2 3.4
2017-Dec-09 23:30N 40°41' W 074°08'0 0.0
2017-Dec-09 23:00N 40°41' W 074°08'0 0.0
2017-Dec-09 22:30N 40°41' W 074°08'0 0.0
2017-Dec-09 22:00N 40°41' W 074°08'0 0.0
2017-Dec-09 21:30N 40°41' W 074°08'0 0.4
2017-Dec-09 21:00N 40°41' W 074°08'1 2.2
2017-Dec-09 20:30N 40°42' W 074°09'0 0.0
2017-Dec-09 20:00N 40°42' W 074°09'0 0.0
2017-Dec-09 19:30N 40°42' W 074°09'0 0.0
2017-Dec-09 19:00N 40°42' W 074°09'0 0.0
2017-Dec-09 18:30N 40°42' W 074°09'0 0.0
2017-Dec-09 18:00N 40°42' W 074°09'0 0.0
2017-Dec-09 17:30N 40°42' W 074°09'0 0.0
2017-Dec-09 17:00N 40°42' W 074°09'0 0.0
2017-Dec-09 16:30N 40°42' W 074°09'0 0.0
2017-Dec-09 16:00N 40°42' W 074°09'0 0.0
2017-Dec-09 15:30N 40°42' W 074°09'0 0.3
2017-Dec-09 15:00N 40°42' W 074°09'1 2.3
2017-Dec-09 14:30N 40°41' W 074°09'0 0.0
2017-Dec-09 14:00N 40°41' W 074°09'0 0.2
2017-Dec-09 13:30N 40°41' W 074°09'0 0.2
2017-Dec-09 13:00N 40°41' W 074°09'0 0.0
2017-Dec-09 12:30N 40°41' W 074°09'0 0.0
2017-Dec-09 12:00N 40°41' W 074°09'0 0.0
2017-Dec-09 11:30N 40°41' W 074°09'0 0.0
2017-Dec-09 11:00N 40°41' W 074°09'0 0.0
2017-Dec-09 10:30N 40°41' W 074°09'0 0.0
2017-Dec-09 10:00N 40°41' W 074°09'1 1.8
2017-Dec-09 09:30N 40°42' W 074°08'0 0.7
2017-Dec-09 09:00N 40°42' W 074°09'0 0.0
2017-Dec-09 08:30N 40°42' W 074°09'0 0.0
2017-Dec-09 08:00N 40°42' W 074°09'0 0.0
2017-Dec-09 07:30N 40°42' W 074°09'0 0.0
2017-Dec-09 07:00N 40°42' W 074°09'0 0.0
2017-Dec-09 06:30N 40°42' W 074°09'0 0.0
2017-Dec-09 06:00N 40°42' W 074°09'0 0.0
2017-Dec-09 05:30N 40°42' W 074°09'0 0.0
2017-Dec-09 05:00N 40°42' W 074°09'0 0.0
2017-Dec-09 04:29N 40°42' W 074°09'0 0.0
2017-Dec-09 04:00N 40°42' W 074°09'0 0.0
2017-Dec-09 03:30N 40°42' W 074°09'2 4.9
2017-Dec-09 03:00N 40°39' W 074°09'3 6.2
2017-Dec-09 02:30N 40°38' W 074°12'0 0.5
2017-Dec-09 02:00N 40°38' W 074°12'0 0.5
2017-Dec-09 01:30N 40°38' W 074°12'0 0.0
2017-Dec-09 00:59N 40°38' W 074°12'0 0.0
2017-Dec-09 00:29N 40°38' W 074°12'0 0.0
2017-Dec-09 00:00N 40°38' W 074°12'3 6.2
2017-Dec-08 23:30N 40°40' W 074°09'1 2.9
2017-Dec-08 23:00N 40°41' W 074°08'1 2.0
2017-Dec-08 22:29N 40°42' W 074°09'1 2.3
2017-Dec-08 22:00N 40°41' W 074°09'0 0.9
2017-Dec-08 21:30N 40°41' W 074°08'0 0.4
2017-Dec-08 21:00N 40°41' W 074°08'3 5.7
2017-Dec-08 20:30N 40°39' W 074°09'3 5.3
2017-Dec-08 20:00N 40°39' W 074°05'3 5.6
2017-Dec-08 19:30N 40°41' W 074°02'3 6.8
2017-Dec-08 19:00N 40°43' W 073°59'3 6.5
2017-Dec-08 18:29N 40°46' W 073°57'0 1.0
2017-Dec-08 17:59N 40°46' W 073°57'0 0.0
2017-Dec-08 17:29N 40°46' W 073°57'0 0.0
2017-Dec-08 17:00N 40°46' W 073°57'0 0.0
2017-Dec-08 16:30N 40°46' W 073°57'0 0.0
2017-Dec-08 16:00N 40°46' W 073°57'0 0.0
2017-Dec-08 15:30N 40°46' W 073°57'0 0.0
2017-Dec-08 15:00N 40°46' W 073°57'0 0.0
2017-Dec-08 14:30N 40°46' W 073°57'0 0.0
2017-Dec-08 14:00N 40°46' W 073°57'0 0.0
2017-Dec-08 13:30N 40°46' W 073°57'0 0.0
2017-Dec-08 13:00N 40°46' W 073°57'0 0.2
2017-Dec-08 12:30N 40°46' W 073°57'1 1.1
2017-Dec-08 12:00N 40°46' W 073°57'1 2.2
2017-Dec-08 11:30N 40°45' W 073°58'2 3.5
2017-Dec-08 11:00N 40°43' W 073°58'1 2.7
2017-Dec-08 10:30N 40°42' W 073°60'1 2.9
2017-Dec-08 10:00N 40°41' W 074°01'2 3.5
2017-Dec-08 09:30N 40°40' W 074°03'2 5.0
2017-Dec-08 09:00N 40°39' W 074°06'2 4.7
2017-Dec-08 08:30N 40°40' W 074°09'2 3.6
2017-Dec-08 07:59N 40°41' W 074°08'0 0.0
2017-Dec-08 07:30N 40°41' W 074°08'1 1.8
2017-Dec-08 07:00N 40°42' W 074°09'0 0.0
2017-Dec-08 06:30N 40°42' W 074°09'0 0.0
2017-Dec-08 06:00N 40°42' W 074°09'0 0.0
2017-Dec-08 05:30N 40°42' W 074°09'0 0.0
2017-Dec-08 05:00N 40°42' W 074°09'0 0.0
2017-Dec-08 04:30N 40°42' W 074°09'0 0.0
2017-Dec-08 04:00N 40°42' W 074°09'0 0.0
2017-Dec-08 03:29N 40°42' W 074°09'0 0.0
2017-Dec-08 03:00N 40°42' W 074°09'0 0.0
2017-Dec-08 02:30N 40°42' W 074°09'0 0.0
2017-Dec-08 02:00N 40°42' W 074°09'0 0.0
2017-Dec-08 01:30N 40°42' W 074°09'0 0.0
2017-Dec-08 01:00N 40°42' W 074°09'0 0.0
2017-Dec-08 00:30N 40°42' W 074°09'0 0.0
2017-Dec-08 00:00N 40°42' W 074°09'0 0.0
2017-Dec-07 23:30N 40°42' W 074°09'0 0.0
2017-Dec-07 23:00N 40°42' W 074°09'0 0.0
2017-Dec-07 22:30N 40°42' W 074°09'0 0.0
2017-Dec-07 21:59N 40°42' W 074°09'0 0.0
2017-Dec-07 21:30N 40°42' W 074°09'0 0.0
2017-Dec-07 21:00N 40°42' W 074°09'0 0.0
2017-Dec-07 20:30N 40°42' W 074°09'1 1.6
2017-Dec-07 20:00N 40°42' W 074°08'0 0.0
2017-Dec-07 19:30N 40°42' W 074°08'0 0.3
2017-Dec-07 19:00N 40°41' W 074°08'1 1.5
2017-Dec-07 18:30N 40°42' W 074°09'0 0.1
2017-Dec-07 18:00N 40°42' W 074°09'1 1.4
2017-Dec-07 17:30N 40°41' W 074°08'0 0.2
2017-Dec-07 17:00N 40°42' W 074°08'1 1.2
2017-Dec-07 16:30N 40°42' W 074°09'0 0.0
2017-Dec-07 15:59N 40°42' W 074°09'0 0.0
2017-Dec-07 15:30N 40°42' W 074°09'1 1.5
2017-Dec-07 15:00N 40°41' W 074°08'0 0.0
2017-Dec-07 14:28N 40°41' W 074°08'1 2.3
2017-Dec-07 14:00N 40°40' W 074°08'1 1.3
2017-Dec-07 13:30N 40°40' W 074°09'0 0.0
2017-Dec-07 13:00N 40°40' W 074°09'0 0.0
2017-Dec-07 12:30N 40°40' W 074°09'2 3.0
2017-Dec-07 12:00N 40°41' W 074°08'0 0.0
2017-Dec-07 11:30N 40°41' W 074°08'0 0.0
2017-Dec-07 11:00N 40°41' W 074°08'0 0.0
2017-Dec-07 10:30N 40°41' W 074°08'0 0.0
2017-Dec-07 10:00N 40°41' W 074°08'0 0.0
2017-Dec-07 09:30N 40°41' W 074°08'0 0.0
2017-Dec-07 09:00N 40°41' W 074°08'2 3.1
2017-Dec-07 08:30N 40°40' W 074°08'4 6.9
2017-Dec-07 07:59N 40°38' W 074°12'0 0.5
2017-Dec-07 07:30N 40°38' W 074°12'0 0.1
2017-Dec-07 07:00N 40°38' W 074°12'0 0.0
2017-Dec-07 06:30N 40°38' W 074°12'0 0.0
2017-Dec-07 06:00N 40°38' W 074°12'0 0.0
2017-Dec-07 05:30N 40°38' W 074°12'0 0.5
2017-Dec-07 05:00N 40°38' W 074°12'3 6.5
2017-Dec-07 04:30N 40°40' W 074°09'1 2.4
2017-Dec-07 04:00N 40°41' W 074°09'4 7.4
2017-Dec-07 03:30N 40°38' W 074°12'0 0.9
2017-Dec-07 03:00N 40°38' W 074°12'0 0.0
2017-Dec-07 02:30N 40°38' W 074°12'0 0.0
2017-Dec-07 01:59N 40°38' W 074°12'0 0.0
2017-Dec-07 01:30N 40°38' W 074°12'0 0.0
2017-Dec-07 01:00N 40°38' W 074°12'0 0.0
2017-Dec-07 00:30N 40°38' W 074°12'0 0.0
2017-Dec-07 00:00N 40°38' W 074°12'1 2.7
2017-Dec-06 23:30N 40°39' W 074°11'3 5.8
2017-Dec-06 23:00N 40°41' W 074°08'0 0.2
2017-Dec-06 22:30N 40°41' W 074°08'1 1.9
2017-Dec-06 21:59N 40°42' W 074°09'0 0.2
2017-Dec-06 21:30N 40°42' W 074°09'2 4.7
2017-Dec-06 21:00N 40°40' W 074°09'  
Track history (hours):
 
Tides and Currents Weather Stations Pressure Air Temp Water Temp Dewpoint Dewpoint Depression Visibility Wind Speed Wind Dir Waves Ship Positions

Mary Alice

Owner: Donjon Marine Co., Inc., HILLSIDE, NJ. More information available from US FCC via Universal Licensing System and Coast Guard Vessel Documentation Center.

Last reported at 2017-Dec-15 08:00 UTC. Time now 2017-Dec-15 08:06 UTC.
Position N 40°39' W 074°06'.

Length 21 m; draft 4.8 m.

Type: Towing. MMSI: 366744020.

Date/timePositionNaut miles runAvg speedWind from/ knotsBaromVisibWave heightAir tempDewpointWater temp
2017-Dec-15 08:00N 40°39' W 074°06'1 1.8
2017-Dec-15 07:30N 40°39' W 074°07'0 0.2
2017-Dec-15 07:00N 40°39' W 074°07'0 0.1
2017-Dec-15 06:30N 40°39' W 074°07'2 3.1
2017-Dec-15 06:00N 40°40' W 074°08'1 2.7
2017-Dec-15 05:30N 40°41' W 074°08'0 0.0
2017-Dec-15 05:00N 40°41' W 074°08'0 0.0
2017-Dec-15 04:30N 40°41' W 074°08'0 0.0
2017-Dec-15 04:00N 40°41' W 074°08'0 0.0
2017-Dec-15 02:30N 40°41' W 074°08'3 1.8
2017-Dec-15 01:00N 40°41' W 074°05'1 2.0
2017-Dec-15 00:30N 40°40' W 074°04'51 6.7
2017-Dec-14 16:59N 39°50' W 074°03'4 8.9
2017-Dec-14 16:29N 39°45' W 074°04'4 8.5
2017-Dec-14 15:58N 39°41' W 074°06'63 6.9
2017-Dec-14 06:44N 39°00' W 075°09'2 8.8
2017-Dec-14 06:30N 39°02' W 075°10'8 9.6
2017-Dec-14 05:42N 39°09' W 075°14'310.8
2017-Dec-14 05:27N 39°11' W 075°16'511.2
2017-Dec-14 05:00N 39°15' W 075°20'611.5
2017-Dec-14 04:30N 39°20' W 075°25'611.1
2017-Dec-14 04:00N 39°24' W 075°29'510.5
2017-Dec-14 03:30N 39°28' W 075°34'5 9.8
2017-Dec-14 03:00N 39°33' W 075°33'5 9.0
2017-Dec-14 02:30N 39°37' W 075°35'4 8.0
2017-Dec-14 02:00N 39°40' W 075°32'3 6.0
2017-Dec-14 01:30N 39°43' W 075°31'0 0.5
2017-Dec-14 01:00N 39°43' W 075°32'1 1.8
2017-Dec-14 00:30N 39°43' W 075°30'3 6.2
2017-Dec-14 00:00N 39°40' W 075°32'4 8.2
2017-Dec-13 23:30N 39°36' W 075°34'4 8.6
2017-Dec-13 23:00N 39°32' W 075°33'4 8.5
2017-Dec-13 22:30N 39°28' W 075°34'4 8.6
2017-Dec-13 22:00N 39°25' W 075°30'4 8.3
2017-Dec-13 21:30N 39°22' W 075°27'4 7.8
2017-Dec-13 21:00N 39°19' W 075°24'4 7.6
2017-Dec-13 20:30N 39°16' W 075°20'4 7.2
2017-Dec-13 20:00N 39°13' W 075°17'4 6.9
2017-Dec-13 19:22N 39°09' W 075°14'5 5.8
2017-Dec-13 18:30N 39°05' W 075°11'55 1.6
2017-Dec-12 08:02N 39°29' W 074°08'2 6.4
2017-Dec-12 07:47N 39°31' W 074°07'2 6.6
2017-Dec-12 07:29N 39°33' W 074°06'3 6.9
2017-Dec-12 07:00N 39°36' W 074°05'3 6.7
2017-Dec-12 06:29N 39°39' W 074°03'4 7.3
2017-Dec-12 05:59N 39°42' W 074°01'43 7.6
2017-Dec-12 00:21N 40°25' W 073°54'3 8.0
2017-Dec-11 23:59N 40°28' W 073°54'4 7.6
2017-Dec-11 23:30N 40°30' W 073°58'4 7.9
2017-Dec-11 22:59N 40°33' W 074°02'4 7.7
2017-Dec-11 22:29N 40°37' W 074°03'1 1.9
2017-Dec-11 22:00N 40°38' W 074°03'3 5.5
2017-Dec-11 21:30N 40°40' W 074°05'0 0.6
2017-Dec-11 21:00N 40°40' W 074°05'0 0.0
2017-Dec-11 20:30N 40°40' W 074°05'0 0.0
2017-Dec-11 20:00N 40°40' W 074°05'1 1.5
2017-Dec-11 19:30N 40°40' W 074°04'1 2.3
2017-Dec-11 19:00N 40°41' W 074°05'0 0.0
2017-Dec-11 18:30N 40°41' W 074°05'0 0.0
2017-Dec-11 18:00N 40°41' W 074°05'0 0.0
2017-Dec-11 17:30N 40°41' W 074°05'0 0.0
2017-Dec-11 17:00N 40°41' W 074°05'0 0.1
2017-Dec-11 16:30N 40°41' W 074°05'0 0.0
2017-Dec-11 16:00N 40°41' W 074°05'2 3.1
2017-Dec-11 15:31N 40°40' W 074°03'4 8.4
2017-Dec-11 15:00N 40°44' W 074°01'4 8.7
2017-Dec-11 14:30N 40°48' W 073°59'4 8.6
2017-Dec-11 14:00N 40°52' W 073°56'4 7.7
2017-Dec-11 13:29N 40°56' W 073°55'1 0.0
2017-Dec-10 04:22N 40°57' W 073°54'2 6.4
2017-Dec-10 04:00N 40°55' W 073°55'3 5.9
2017-Dec-10 03:30N 40°52' W 073°56'3 5.7
2017-Dec-10 03:00N 40°49' W 073°58'3 5.1
2017-Dec-10 02:30N 40°47' W 073°60'2 4.8
2017-Dec-10 02:00N 40°45' W 074°01'2 4.8
2017-Dec-10 01:30N 40°43' W 074°02'2 4.8
2017-Dec-10 01:00N 40°40' W 074°03'3 5.5
2017-Dec-10 00:30N 40°39' W 074°06'2 4.7
2017-Dec-10 00:00N 40°39' W 074°09'2 3.4
2017-Dec-09 23:30N 40°41' W 074°08'0 0.0
2017-Dec-09 23:00N 40°41' W 074°08'0 0.0
2017-Dec-09 22:30N 40°41' W 074°08'0 0.0
2017-Dec-09 22:00N 40°41' W 074°08'0 0.0
2017-Dec-09 21:30N 40°41' W 074°08'0 0.4
2017-Dec-09 21:00N 40°41' W 074°08'1 2.2
2017-Dec-09 20:30N 40°42' W 074°09'0 0.0
2017-Dec-09 20:00N 40°42' W 074°09'0 0.0
2017-Dec-09 19:30N 40°42' W 074°09'0 0.0
2017-Dec-09 19:00N 40°42' W 074°09'0 0.0
2017-Dec-09 18:30N 40°42' W 074°09'0 0.0
2017-Dec-09 18:00N 40°42' W 074°09'0 0.0
2017-Dec-09 17:30N 40°42' W 074°09'0 0.0
2017-Dec-09 17:00N 40°42' W 074°09'0 0.0
2017-Dec-09 16:30N 40°42' W 074°09'0 0.0
2017-Dec-09 16:00N 40°42' W 074°09'0 0.0
2017-Dec-09 15:30N 40°42' W 074°09'0 0.3
2017-Dec-09 15:00N 40°42' W 074°09'1 2.3
2017-Dec-09 14:30N 40°41' W 074°09'0 0.0
2017-Dec-09 14:00N 40°41' W 074°09'0 0.2
2017-Dec-09 13:30N 40°41' W 074°09'0 0.2
2017-Dec-09 13:00N 40°41' W 074°09'0 0.0
2017-Dec-09 12:30N 40°41' W 074°09'0 0.0
2017-Dec-09 12:00N 40°41' W 074°09'0 0.0
2017-Dec-09 11:30N 40°41' W 074°09'0 0.0
2017-Dec-09 11:00N 40°41' W 074°09'0 0.0
2017-Dec-09 10:30N 40°41' W 074°09'0 0.0
2017-Dec-09 10:00N 40°41' W 074°09'1 1.8
2017-Dec-09 09:30N 40°42' W 074°08'0 0.7
2017-Dec-09 09:00N 40°42' W 074°09'0 0.0
2017-Dec-09 08:30N 40°42' W 074°09'0 0.0
2017-Dec-09 08:00N 40°42' W 074°09'0 0.0
2017-Dec-09 07:30N 40°42' W 074°09'0 0.0
2017-Dec-09 07:00N 40°42' W 074°09'0 0.0
2017-Dec-09 06:30N 40°42' W 074°09'0 0.0
2017-Dec-09 06:00N 40°42' W 074°09'0 0.0
2017-Dec-09 05:30N 40°42' W 074°09'0 0.0
2017-Dec-09 05:00N 40°42' W 074°09'0 0.0
2017-Dec-09 04:29N 40°42' W 074°09'0 0.0
2017-Dec-09 04:00N 40°42' W 074°09'0 0.0
2017-Dec-09 03:30N 40°42' W 074°09'2 4.9
2017-Dec-09 03:00N 40°39' W 074°09'3 6.2
2017-Dec-09 02:30N 40°38' W 074°12'0 0.5
2017-Dec-09 02:00N 40°38' W 074°12'0 0.5
2017-Dec-09 01:30N 40°38' W 074°12'0 0.0
2017-Dec-09 00:59N 40°38' W 074°12'0 0.0
2017-Dec-09 00:29N 40°38' W 074°12'0 0.0
2017-Dec-09 00:00N 40°38' W 074°12'3 6.2
2017-Dec-08 23:30N 40°40' W 074°09'1 2.9
2017-Dec-08 23:00N 40°41' W 074°08'1 2.0
2017-Dec-08 22:29N 40°42' W 074°09'1 2.3
2017-Dec-08 22:00N 40°41' W 074°09'0 0.9
2017-Dec-08 21:30N 40°41' W 074°08'0 0.4
2017-Dec-08 21:00N 40°41' W 074°08'3 5.7
2017-Dec-08 20:30N 40°39' W 074°09'3 5.3
2017-Dec-08 20:00N 40°39' W 074°05'3 5.6
2017-Dec-08 19:30N 40°41' W 074°02'3 6.8
2017-Dec-08 19:00N 40°43' W 073°59'3 6.5
2017-Dec-08 18:29N 40°46' W 073°57'0 1.0
2017-Dec-08 17:59N 40°46' W 073°57'0 0.0
2017-Dec-08 17:29N 40°46' W 073°57'0 0.0
2017-Dec-08 17:00N 40°46' W 073°57'0 0.0
2017-Dec-08 16:30N 40°46' W 073°57'0 0.0
2017-Dec-08 16:00N 40°46' W 073°57'0 0.0
2017-Dec-08 15:30N 40°46' W 073°57'0 0.0
2017-Dec-08 15:00N 40°46' W 073°57'0 0.0
2017-Dec-08 14:30N 40°46' W 073°57'0 0.0
2017-Dec-08 14:00N 40°46' W 073°57'0 0.0
2017-Dec-08 13:30N 40°46' W 073°57'0 0.0
2017-Dec-08 13:00N 40°46' W 073°57'0 0.2
2017-Dec-08 12:30N 40°46' W 073°57'1 1.1
2017-Dec-08 12:00N 40°46' W 073°57'1 2.2
2017-Dec-08 11:30N 40°45' W 073°58'2 3.5
2017-Dec-08 11:00N 40°43' W 073°58'1 2.7
2017-Dec-08 10:30N 40°42' W 073°60'1 2.9
2017-Dec-08 10:00N 40°41' W 074°01'2 3.5
2017-Dec-08 09:30N 40°40' W 074°03'2 5.0
2017-Dec-08 09:00N 40°39' W 074°06'2 4.7
2017-Dec-08 08:30N 40°40' W 074°09'2 3.6
2017-Dec-08 07:59N 40°41' W 074°08'0 0.0
2017-Dec-08 07:30N 40°41' W 074°08'1 1.8
2017-Dec-08 07:00N 40°42' W 074°09'0 0.0
2017-Dec-08 06:30N 40°42' W 074°09'0 0.0
2017-Dec-08 06:00N 40°42' W 074°09'0 0.0
2017-Dec-08 05:30N 40°42' W 074°09'0 0.0
2017-Dec-08 05:00N 40°42' W 074°09'0 0.0
2017-Dec-08 04:30N 40°42' W 074°09'0 0.0
2017-Dec-08 04:00N 40°42' W 074°09'0 0.0
2017-Dec-08 03:29N 40°42' W 074°09'0 0.0
2017-Dec-08 03:00N 40°42' W 074°09'0 0.0
2017-Dec-08 02:30N 40°42' W 074°09'0 0.0
2017-Dec-08 02:00N 40°42' W 074°09'0 0.0
2017-Dec-08 01:30N 40°42' W 074°09'0 0.0
2017-Dec-08 01:00N 40°42' W 074°09'0 0.0
2017-Dec-08 00:30N 40°42' W 074°09'0 0.0
2017-Dec-08 00:00N 40°42' W 074°09'0 0.0
2017-Dec-07 23:30N 40°42' W 074°09'0 0.0
2017-Dec-07 23:00N 40°42' W 074°09'0 0.0
2017-Dec-07 22:30N 40°42' W 074°09'0 0.0
2017-Dec-07 21:59N 40°42' W 074°09'0 0.0
2017-Dec-07 21:30N 40°42' W 074°09'0 0.0
2017-Dec-07 21:00N 40°42' W 074°09'0 0.0
2017-Dec-07 20:30N 40°42' W 074°09'1 1.6
2017-Dec-07 20:00N 40°42' W 074°08'0 0.0
2017-Dec-07 19:30N 40°42' W 074°08'0 0.3
2017-Dec-07 19:00N 40°41' W 074°08'1 1.5
2017-Dec-07 18:30N 40°42' W 074°09'0 0.1
2017-Dec-07 18:00N 40°42' W 074°09'1 1.4
2017-Dec-07 17:30N 40°41' W 074°08'0 0.2
2017-Dec-07 17:00N 40°42' W 074°08'1 1.2
2017-Dec-07 16:30N 40°42' W 074°09'0 0.0
2017-Dec-07 15:59N 40°42' W 074°09'0 0.0
2017-Dec-07 15:30N 40°42' W 074°09'1 1.5
2017-Dec-07 15:00N 40°41' W 074°08'0 0.0
2017-Dec-07 14:28N 40°41' W 074°08'1 2.3
2017-Dec-07 14:00N 40°40' W 074°08'1 1.3
2017-Dec-07 13:30N 40°40' W 074°09'0 0.0
2017-Dec-07 13:00N 40°40' W 074°09'0 0.0
2017-Dec-07 12:30N 40°40' W 074°09'2 3.0
2017-Dec-07 12:00N 40°41' W 074°08'0 0.0
2017-Dec-07 11:30N 40°41' W 074°08'0 0.0
2017-Dec-07 11:00N 40°41' W 074°08'0 0.0
2017-Dec-07 10:30N 40°41' W 074°08'0 0.0
2017-Dec-07 10:00N 40°41' W 074°08'0 0.0
2017-Dec-07 09:30N 40°41' W 074°08'0 0.0
2017-Dec-07 09:00N 40°41' W 074°08'2 3.1
2017-Dec-07 08:30N 40°40' W 074°08'4 6.9
2017-Dec-07 07:59N 40°38' W 074°12'0 0.5
2017-Dec-07 07:30N 40°38' W 074°12'0 0.1
2017-Dec-07 07:00N 40°38' W 074°12'0 0.0
2017-Dec-07 06:30N 40°38' W 074°12'0 0.0
2017-Dec-07 06:00N 40°38' W 074°12'0 0.0
2017-Dec-07 05:30N 40°38' W 074°12'0 0.5
2017-Dec-07 05:00N 40°38' W 074°12'3 6.5
2017-Dec-07 04:30N 40°40' W 074°09'1 2.4
2017-Dec-07 04:00N 40°41' W 074°09'4 7.4
2017-Dec-07 03:30N 40°38' W 074°12'0 0.9
2017-Dec-07 03:00N 40°38' W 074°12'0 0.0
2017-Dec-07 02:30N 40°38' W 074°12'0 0.0
2017-Dec-07 01:59N 40°38' W 074°12'0 0.0
2017-Dec-07 01:30N 40°38' W 074°12'0 0.0
2017-Dec-07 01:00N 40°38' W 074°12'0 0.0
2017-Dec-07 00:30N 40°38' W 074°12'0 0.0
2017-Dec-07 00:00N 40°38' W 074°12'1 2.7
2017-Dec-06 23:30N 40°39' W 074°11'3 5.8
2017-Dec-06 23:00N 40°41' W 074°08'0 0.2
2017-Dec-06 22:30N 40°41' W 074°08'1 1.9
2017-Dec-06 21:59N 40°42' W 074°09'0 0.2
2017-Dec-06 21:30N 40°42' W 074°09'2 4.7
2017-Dec-06 21:00N 40°40' W 074°09'  

Dump ship's entire track history